Time;durP1;ratioP1;P1;durP2;ratioP2;P2;SDS_P1;SDS_P2;PMS_P1;PMS_P2;Temp;Humidity;BMP_temperature;BMP_pressure;BME280_temperature;BME280_humidity;BME280_pressure;Samples;Min_cycle;Max_cycle;Signal;HPM_P1;HPM_P2
2021/07/10 00:00:38;;;;;;;17.30;10.98;;;;;;;14.71;77.64;100766.78;10305098;28;20235;-73
2021/07/10 00:05:42;;;;;;;16.27;10.82;;;;;;;14.66;77.73;100765.50;10319859;28;20238;-73
2021/07/10 00:10:45;;;;;;;16.63;10.75;;;;;;;14.62;77.58;100774.88;10307120;28;20241;-73
2021/07/10 00:15:48;;;;;;;14.68;10.25;;;;;;;14.54;77.81;100772.91;10304793;28;20369;-73
2021/07/10 00:20:52;;;;;;;15.50;10.73;;;;;;;14.49;77.73;100775.16;10304833;28;20321;-73
2021/07/10 00:25:55;;;;;;;17.50;10.40;;;;;;;14.57;77.55;100769.91;10311767;28;21497;-73
2021/07/10 00:30:58;;;;;;;16.40;10.35;;;;;;;14.58;77.05;100758.94;10309855;28;20235;-73
2021/07/10 00:36:02;;;;;;;16.27;10.00;;;;;;;14.55;76.78;100761.09;10312428;28;20270;-73
2021/07/10 00:41:05;;;;;;;15.38;9.60;;;;;;;14.50;76.50;100764.19;10312218;28;20718;-73
2021/07/10 00:46:09;;;;;;;14.48;9.57;;;;;;;14.42;76.61;100755.94;10310533;28;20231;-73
2021/07/10 00:51:14;;;;;;;16.58;10.57;;;;;;;14.35;76.71;100746.66;10311787;28;20235;-73
2021/07/10 00:56:17;;;;;;;21.55;11.77;;;;;;;14.18;77.43;100745.50;10308796;28;20246;-73
2021/07/10 01:01:20;;;;;;;19.52;11.13;;;;;;;14.06;78.34;100738.50;10312454;28;20247;-73
2021/07/10 01:06:25;;;;;;;19.50;11.60;;;;;;;14.00;78.22;100733.66;10311699;28;20239;-74
2021/07/10 01:11:28;;;;;;;17.55;11.48;;;;;;;13.94;78.61;100746.72;10308657;28;20615;-73
2021/07/10 01:16:31;;;;;;;17.77;11.15;;;;;;;13.96;78.58;100737.59;10308874;28;20242;-74
2021/07/10 01:21:35;;;;;;;18.23;12.00;;;;;;;14.05;78.21;100742.22;10310203;28;20365;-74
2021/07/10 01:26:38;;;;;;;19.20;12.15;;;;;;;14.01;78.22;100738.91;10306113;28;20273;-73
2021/07/10 01:31:42;;;;;;;15.23;10.88;;;;;;;13.99;77.89;100740.91;10309222;28;21400;-74
2021/07/10 01:36:47;;;;;;;14.70;10.32;;;;;;;13.92;77.50;100732.50;10308412;28;20253;-73
2021/07/10 01:41:53;;;;;;;18.08;10.73;;;;;;;13.87;77.44;100734.75;10310587;28;20250;-74
2021/07/10 01:46:56;;;;;;;19.15;11.18;;;;;;;13.70;78.00;100730.84;10307204;28;20238;-73
2021/07/10 01:52:01;;;;;;;18.05;12.20;;;;;;;13.67;78.89;100725.72;10308333;28;20234;-73
2021/07/10 01:57:07;;;;;;;18.65;12.40;;;;;;;13.58;79.23;100728.41;10306613;28;20242;-73
2021/07/10 02:02:10;;;;;;;16.75;10.77;;;;;;;13.67;79.12;100724.88;10307620;28;20238;-74
2021/07/10 02:07:15;;;;;;;19.83;12.38;;;;;;;13.69;78.72;100718.34;10309264;28;20246;-73
2021/07/10 02:12:18;;;;;;;18.00;11.52;;;;;;;13.69;78.61;100723.75;10312125;28;20235;-73
2021/07/10 02:17:21;;;;;;;19.13;12.05;;;;;;;13.84;78.56;100724.22;10310306;28;20247;-73
2021/07/10 02:22:25;;;;;;;16.33;11.30;;;;;;;13.78;77.84;100713.97;10306051;28;20235;-73
2021/07/10 02:27:28;;;;;;;21.85;12.65;;;;;;;13.67;77.49;100712.22;10305802;28;20735;-74
2021/07/10 02:32:31;;;;;;;18.33;11.95;;;;;;;13.56;77.73;100711.47;10310494;28;20313;-73
2021/07/10 02:37:36;;;;;;;19.30;11.73;;;;;;;13.43;77.89;100709.84;10306265;28;20243;-73
2021/07/10 02:42:39;;;;;;;18.88;10.88;;;;;;;13.42;77.99;100705.47;10307326;28;20246;-73
2021/07/10 02:47:43;;;;;;;19.35;11.70;;;;;;;13.43;78.15;100717.09;10303184;28;20802;-73
2021/07/10 02:52:48;;;;;;;18.05;11.90;;;;;;;13.51;78.27;100719.13;10309895;28;20239;-73
2021/07/10 02:57:51;;;;;;;19.05;12.05;;;;;;;13.48;77.65;100706.75;10309125;28;20234;-73
2021/07/10 03:02:54;;;;;;;18.50;12.50;;;;;;;13.40;77.59;100703.88;10305661;28;20243;-73
2021/07/10 03:07:58;;;;;;;17.58;11.18;;;;;;;13.44;77.54;100694.53;10307970;28;20705;-74
2021/07/10 03:13:01;;;;;;;22.77;13.23;;;;;;;13.42;77.73;100696.50;10304713;28;21408;-73
2021/07/10 03:18:04;;;;;;;18.10;11.73;;;;;;;13.30;77.49;100698.38;10304760;28;20325;-74
2021/07/10 03:23:09;;;;;;;20.25;12.88;;;;;;;13.23;77.53;100700.78;10305355;28;20726;-73
2021/07/10 03:28:12;;;;;;;23.30;13.70;;;;;;;13.28;77.84;100705.78;10306443;28;20266;-73
2021/07/10 03:33:15;;;;;;;25.40;13.32;;;;;;;13.35;77.82;100701.53;10305460;28;20231;-73
2021/07/10 03:38:19;;;;;;;19.08;12.50;;;;;;;13.37;77.92;100701.47;10304912;28;20251;-73
2021/07/10 03:43:22;;;;;;;18.48;11.57;;;;;;;13.40;78.14;100703.88;10304417;28;20321;-73
2021/07/10 03:48:25;;;;;;;18.20;11.13;;;;;;;13.33;77.79;100692.75;10304668;28;20258;-73
2021/07/10 03:53:30;;;;;;;17.13;11.82;;;;;;;13.33;77.94;100703.53;10303771;28;20235;-73
2021/07/10 03:58:33;;;;;;;19.00;11.98;;;;;;;13.27;77.84;100694.16;10312072;28;20258;-74
2021/07/10 04:03:36;;;;;;;20.17;11.18;;;;;;;13.25;78.38;100685.31;10311878;28;20239;-74
2021/07/10 04:08:40;;;;;;;17.65;11.95;;;;;;;13.18;78.21;100683.28;10312307;28;20231;-74
2021/07/10 04:13:43;;;;;;;19.30;12.77;;;;;;;13.14;78.74;100679.19;10313667;28;20231;-74
2021/07/10 04:18:46;;;;;;;20.63;13.10;;;;;;;13.33;78.92;100671.16;10311487;28;20718;-74
2021/07/10 04:23:51;;;;;;;20.95;14.27;;;;;;;13.46;78.60;100679.91;10311734;28;20281;-74
2021/07/10 04:28:53;;;;;;;25.33;14.57;;;;;;;13.54;78.78;100673.81;10326082;28;20246;-74
2021/07/10 04:33:56;;;;;;;24.58;15.57;;;;;;;13.61;78.76;100671.44;10309199;28;20231;-74
2021/07/10 04:39:01;;;;;;;28.02;14.52;;;;;;;13.80;78.51;100662.56;10326957;28;20250;-74
2021/07/10 04:44:04;;;;;;;23.88;14.55;;;;;;;13.88;77.96;100668.97;10314511;28;20743;-74
2021/07/10 04:49:07;;;;;;;28.05;14.95;;;;;;;14.00;77.91;100677.78;10316863;28;20607;-73
2021/07/10 04:54:11;;;;;;;26.70;13.95;;;;;;;14.07;77.65;100675.38;10310036;28;20237;-73
2021/07/10 04:59:14;;;;;;;25.10;13.27;;;;;;;14.16;77.60;100679.94;10308890;28;21510;-73
2021/07/10 05:04:17;;;;;;;32.10;15.90;;;;;;;14.25;77.09;100683.66;10313182;28;20717;-73
2021/07/10 05:09:21;;;;;;;26.30;13.57;;;;;;;14.26;76.93;100675.41;10326154;28;20239;-73
2021/07/10 05:14:24;;;;;;;24.77;13.88;;;;;;;14.32;77.17;100682.09;10311630;28;20245;-73
2021/07/10 05:19:27;;;;;;;27.05;13.60;;;;;;;14.42;76.89;100679.41;10310733;28;20242;-74
2021/07/10 05:24:32;;;;;;;19.80;12.50;;;;;;;14.48;76.83;100679.72;10312911;28;20262;-73
2021/07/10 05:29:35;;;;;;;20.88;12.95;;;;;;;14.64;76.92;100683.69;10310459;28;20665;-74
2021/07/10 05:34:38;;;;;;;16.88;10.93;;;;;;;14.72;76.50;100697.34;10309053;28;20258;-74
2021/07/10 05:39:43;;;;;;;23.20;11.65;;;;;;;14.80;75.92;100687.50;10308959;28;20234;-74
2021/07/10 05:44:46;;;;;;;17.77;11.57;;;;;;;14.72;75.58;100687.38;10311704;28;20247;-74
2021/07/10 05:49:49;;;;;;;19.40;12.35;;;;;;;14.75;75.56;100686.22;10323151;28;20245;-73
2021/07/10 05:54:53;;;;;;;28.77;14.63;;;;;;;14.90;76.08;100692.06;10307729;28;21481;-73
2021/07/10 05:59:56;;;;;;;23.05;14.65;;;;;;;14.93;75.60;100689.06;10307971;28;20239;-74
2021/07/10 06:04:59;;;;;;;25.58;17.42;;;;;;;14.96;75.49;100689.59;10316067;28;20658;-74
2021/07/10 06:10:05;;;;;;;33.10;15.90;;;;;;;15.05;75.71;100688.72;10313424;28;20231;-74
2021/07/10 06:15:10;;;;;;;22.20;11.75;;;;;;;15.11;75.22;100689.13;10308321;28;20250;-73
2021/07/10 06:20:15;;;;;;;16.33;11.07;;;;;;;15.32;75.74;100689.78;10306089;28;20261;-73
2021/07/10 06:25:21;;;;;;;26.45;16.92;;;;;;;15.68;73.85;100696.22;10324939;28;20230;-72
2021/07/10 06:30:24;;;;;;;23.42;13.40;;;;;;;15.77;74.35;100693.59;10340010;28;20314;-72
2021/07/10 06:35:27;;;;;;;24.45;15.45;;;;;;;16.11;72.66;100696.56;10317360;28;20257;-73
2021/07/10 06:40:31;;;;;;;25.35;17.50;;;;;;;16.41;71.79;100694.53;10349398;28;20585;-73
2021/07/10 06:45:34;;;;;;;25.00;16.77;;;;;;;16.65;71.74;100693.88;10336270;28;20585;-74
2021/07/10 06:50:38;;;;;;;29.98;19.67;;;;;;;16.93;71.11;100687.31;10324564;28;20529;-73
2021/07/10 06:55:42;;;;;;;35.08;22.20;;;;;;;17.31;70.08;100684.38;10338053;28;22365;-73
2021/07/10 07:00:48;;;;;;;30.45;20.38;;;;;;;17.51;69.72;100683.13;10307853;28;20239;-73
2021/07/10 07:05:51;;;;;;;35.05;21.20;;;;;;;17.70;68.16;100684.75;10308557;28;20602;-73
2021/07/10 07:10:56;;;;;;;33.15;20.40;;;;;;;17.97;68.00;100683.69;10306859;28;20243;-73
2021/07/10 07:15:59;;;;;;;28.80;18.23;;;;;;;18.21;67.06;100687.44;10305907;28;20249;-74
2021/07/10 07:21:02;;;;;;;28.95;20.05;;;;;;;18.67;65.86;100682.41;10331202;28;20237;-74
2021/07/10 07:26:06;;;;;;;31.63;21.52;;;;;;;19.22;63.51;100677.06;10346169;28;20230;-73
2021/07/10 07:31:09;;;;;;;33.42;22.23;;;;;;;19.17;63.24;100678.63;10355122;28;20241;-74
2021/07/10 07:36:12;;;;;;;35.92;21.92;;;;;;;18.82;64.11;100679.91;10352577;28;20276;-74
2021/07/10 07:41:18;;;;;;;33.10;20.83;;;;;;;18.70;64.03;100676.63;10356975;28;20234;-75
2021/07/10 07:46:22;;;;;;;35.67;23.58;;;;;;;18.38;65.93;100675.59;10353636;28;20862;-73
2021/07/10 07:51:25;;;;;;;35.67;22.90;;;;;;;18.53;65.76;100663.00;10338879;28;20618;-73
2021/07/10 07:56:29;;;;;;;37.92;22.48;;;;;;;18.71;65.62;100667.44;10333750;28;20235;-73
2021/07/10 08:01:32;;;;;;;37.55;23.23;;;;;;;18.95;63.94;100666.59;10322613;28;20231;-74
2021/07/10 08:06:35;;;;;;;34.38;22.58;;;;;;;19.56;62.80;100662.38;10340588;28;20328;-73
2021/07/10 08:11:40;;;;;;;34.60;21.85;;;;;;;19.87;61.41;100664.28;10339161;28;20237;-73
2021/07/10 08:16:43;;;;;;;31.77;21.15;;;;;;;20.77;59.46;100645.41;10331727;28;20234;-74
2021/07/10 08:21:47;;;;;;;35.58;22.42;;;;;;;22.36;55.81;100655.94;10333087;28;20270;-73
2021/07/10 08:26:51;;;;;;;33.85;20.25;;;;;;;22.17;54.75;100652.81;10330725;28;20234;-73
2021/07/10 08:31:54;;;;;;;27.92;18.60;;;;;;;22.28;52.88;100651.44;10329205;28;20239;-73
2021/07/10 08:36:57;;;;;;;32.60;20.63;;;;;;;21.51;54.24;100646.50;10315780;28;20231;-75
2021/07/10 08:42:01;;;;;;;28.83;19.63;;;;;;;21.87;54.55;100644.69;10336185;28;20254;-75
2021/07/10 08:47:11;;;;;;;32.40;19.17;;;;;;;22.14;55.73;100641.41;10308288;28;20241;-75
2021/07/10 08:52:15;;;;;;;28.08;19.88;;;;;;;23.06;51.40;100621.34;10306549;28;20242;-75
2021/07/10 08:57:20;;;;;;;27.88;20.42;;;;;;;22.33;51.87;100625.19;10306125;28;20231;-75
2021/07/10 09:02:23;;;;;;;27.77;19.27;;;;;;;21.34;54.91;100630.31;10310309;28;20235;-75
2021/07/10 09:07:27;;;;;;;21.67;16.55;;;;;;;23.15;50.53;100621.03;10309696;28;20755;-74
2021/07/10 09:12:32;;;;;;;22.40;15.85;;;;;;;23.65;47.70;100618.97;10309408;28;20227;-74
2021/07/10 09:17:45;;;;;;;21.95;16.55;;;;;;;22.06;51.59;100626.81;10309210;28;20234;-75
2021/07/10 09:22:48;;;;;;;19.30;14.65;;;;;;;22.39;51.12;100620.81;10310827;28;20243;-75
2021/07/10 09:27:54;;;;;;;24.05;17.25;;;;;;;23.76;49.45;100609.31;10309882;28;20250;-75
2021/07/10 09:33:13;;;;;;;26.30;17.33;;;;;;;23.94;47.66;100608.72;10309472;28;20626;-75
2021/07/10 09:38:20;;;;;;;17.08;12.18;;;;;;;24.03;46.83;100598.44;10308683;28;20282;-75
2021/07/10 09:43:26;;;;;;;20.15;14.60;;;;;;;23.08;48.53;100605.56;10308029;28;20239;-75
2021/07/10 09:48:30;;;;;;;14.32;11.18;;;;;;;22.57;49.36;100603.94;10307033;28;20239;-75
2021/07/10 09:53:33;;;;;;;13.93;10.52;;;;;;;22.95;48.29;100590.72;10311978;28;20234;-75
2021/07/10 09:58:38;;;;;;;16.85;12.38;;;;;;;22.82;46.54;100596.16;10307822;28;20231;-76
2021/07/10 10:03:41;;;;;;;15.60;11.30;;;;;;;22.41;47.38;100588.63;10322934;28;20235;-75
2021/07/10 10:08:48;;;;;;;13.93;10.02;;;;;;;22.81;47.10;100578.00;10307486;28;20442;-75
2021/07/10 10:13:56;;;;;;;14.30;10.68;;;;;;;22.30;46.32;100578.22;10307831;28;20238;-75
2021/07/10 10:19:00;;;;;;;14.82;10.85;;;;;;;22.67;46.87;100588.00;10307827;28;20234;-75
2021/07/10 10:24:04;;;;;;;15.18;10.48;;;;;;;22.29;48.04;100580.09;10323042;28;20342;-76
2021/07/10 10:29:10;;;;;;;13.32;9.68;;;;;;;22.69;47.78;100576.88;10308158;28;20242;-75
2021/07/10 10:34:13;;;;;;;13.65;9.90;;;;;;;23.79;45.34;100569.69;10308410;28;20239;-76
2021/07/10 10:39:19;;;;;;;16.10;10.40;;;;;;;25.51;42.13;100556.88;10305553;28;20242;-76
2021/07/10 10:44:25;;;;;;;14.40;10.13;;;;;;;24.22;42.66;100556.44;10306554;28;20258;-75
2021/07/10 10:49:47;;;;;;;14.15;10.90;;;;;;;23.12;45.50;100560.31;10306797;28;21879;-75
2021/07/10 10:54:51;;;;;;;15.93;11.18;;;;;;;22.87;47.19;100557.19;10320765;28;20235;-75
2021/07/10 10:59:56;;;;;;;11.43;9.65;;;;;;;23.35;46.80;100552.63;10307374;28;20235;-75
2021/07/10 11:05:00;;;;;;;14.60;10.73;;;;;;;23.88;44.32;100544.56;10307135;28;20794;-75
2021/07/10 11:10:15;;;;;;;13.25;10.57;;;;;;;23.97;44.95;100539.75;10308320;28;20617;-75
2021/07/10 11:15:44;;;;;;;13.93;10.90;;;;;;;24.40;42.60;100533.03;10306566;28;21697;-76
2021/07/10 11:20:49;;;;;;;12.75;9.85;;;;;;;24.72;43.13;100525.81;10306564;28;20235;-75
2021/07/10 11:26:06;;;;;;;15.10;11.13;;;;;;;26.28;39.37;100521.91;10307100;28;20242;-76
2021/07/10 11:31:12;;;;;;;14.05;10.98;;;;;;;27.74;36.94;100508.38;10306728;28;20675;-75
2021/07/10 11:36:46;;;;;;;16.00;11.65;;;;;;;27.53;36.37;100510.56;10307879;28;20313;-75
2021/07/10 11:41:49;;;;;;;12.88;11.35;;;;;;;27.21;36.80;100500.78;10295499;28;20242;-75
2021/07/10 11:47:07;;;;;;;15.25;12.13;;;;;;;25.74;39.05;100491.16;10306099;28;20238;-75
2021/07/10 11:52:13;;;;;;;14.00;10.77;;;;;;;24.92;42.20;100490.88;10308981;28;20616;-75
2021/07/10 11:57:17;;;;;;;14.98;11.63;;;;;;;23.75;44.16;100486.94;10311179;28;20231;-75
2021/07/10 12:02:23;;;;;;;12.85;10.52;;;;;;;23.45;43.76;100497.44;10319058;28;20231;-75
2021/07/10 12:07:26;;;;;;;13.23;10.23;;;;;;;23.24;44.76;100497.56;10313524;28;20235;-75
2021/07/10 12:12:29;;;;;;;11.85;10.15;;;;;;;23.34;44.17;100484.31;10312483;28;20243;-74
2021/07/10 12:17:34;;;;;;;13.23;10.80;;;;;;;23.62;43.80;100481.44;10307104;28;20243;-75
2021/07/10 12:22:49;;;;;;;13.65;9.77;;;;;;;24.53;43.99;100473.47;10311659;28;21390;-75
2021/07/10 12:27:54;;;;;;;11.80;10.02;;;;;;;24.00;41.97;100481.72;10310702;28;20623;-75
2021/07/10 12:32:58;;;;;;;11.98;8.82;;;;;;;24.07;42.33;100470.75;10312339;28;20235;-75
2021/07/10 12:38:11;;;;;;;10.65;8.88;;;;;;;23.81;44.80;100474.34;10310632;28;20889;-74
2021/07/10 12:43:24;;;;;;;11.77;8.48;;;;;;;24.57;42.95;100464.78;10310485;28;20262;-75
2021/07/10 12:48:28;;;;;;;9.85;8.85;;;;;;;26.85;37.44;100463.94;10310884;28;20231;-75
2021/07/10 12:53:32;;;;;;;9.30;8.00;;;;;;;27.88;36.99;100459.34;10311270;28;20235;-75
2021/07/10 12:58:39;;;;;;;11.85;8.35;;;;;;;27.86;34.73;100451.28;10310591;28;20227;-75
2021/07/10 13:03:50;;;;;;;7.68;6.88;;;;;;;27.87;37.84;100441.09;10310518;28;20618;-75
2021/07/10 13:08:54;;;;;;;8.48;7.50;;;;;;;27.42;37.48;100441.56;10308185;28;20257;-75
2021/07/10 13:13:57;;;;;;;7.50;6.70;;;;;;;26.01;39.07;100438.69;10310893;28;20242;-76
2021/07/10 13:19:02;;;;;;;7.80;7.00;;;;;;;25.71;39.42;100433.84;10309185;28;21501;-75
2021/07/10 13:24:06;;;;;;;8.25;7.20;;;;;;;25.11;41.17;100444.34;10308207;28;20251;-74
2021/07/10 13:29:16;;;;;;;8.95;7.90;;;;;;;25.42;40.54;100443.53;10318995;28;20226;-74
2021/07/10 13:34:22;;;;;;;8.93;7.43;;;;;;;25.25;40.86;100445.13;10341480;28;20241;-75
2021/07/10 13:39:28;;;;;;;8.15;7.32;;;;;;;24.95;40.54;100446.50;10339375;28;20223;-75
2021/07/10 13:44:32;;;;;;;8.80;7.90;;;;;;;25.35;40.70;100438.09;10308987;28;20234;-75
2021/07/10 13:49:39;;;;;;;9.27;7.93;;;;;;;25.10;41.48;100435.28;10308311;28;20231;-75
2021/07/10 13:54:46;;;;;;;9.20;7.63;;;;;;;24.35;42.00;100425.75;10307902;28;20622;-75
2021/07/10 13:59:55;;;;;;;10.70;7.72;;;;;;;24.64;42.12;100427.19;10308905;28;20242;-75
2021/07/10 14:05:21;;;;;;;7.63;6.50;;;;;;;24.65;40.17;100426.13;10309961;28;20246;-74
2021/07/10 14:10:26;;;;;;;7.90;6.47;;;;;;;23.96;43.22;100422.00;10310632;28;21525;-75
2021/07/10 14:15:30;;;;;;;8.85;7.53;;;;;;;23.51;43.04;100421.75;10317913;28;20807;-75
2021/07/10 14:20:35;;;;;;;9.02;7.60;;;;;;;22.87;47.11;100423.00;10348991;28;20238;-75
2021/07/10 14:25:57;;;;;;;9.30;7.68;;;;;;;23.19;47.18;100427.78;10348571;28;20795;-75
2021/07/10 14:31:00;;;;;;;10.80;8.45;;;;;;;24.39;45.01;100416.03;10348498;28;20600;-75
2021/07/10 14:36:06;;;;;;;9.00;7.60;;;;;;;25.94;42.62;100415.88;10343526;28;20749;-75
2021/07/10 14:41:09;;;;;;;8.90;7.93;;;;;;;26.54;41.50;100407.88;10326984;28;20251;-75
2021/07/10 14:46:14;;;;;;;8.88;7.65;;;;;;;28.10;38.05;100388.69;10323626;28;20249;-75
2021/07/10 14:51:19;;;;;;;8.32;7.43;;;;;;;27.37;37.41;100385.19;10321927;28;20696;-75
2021/07/10 14:56:22;;;;;;;7.85;7.00;;;;;;;28.52;36.56;100384.94;10309115;28;20242;-76
2021/07/10 15:01:25;;;;;;;11.38;7.78;;;;;;;29.10;35.07;100378.41;10309280;28;20575;-75
2021/07/10 15:06:30;;;;;;;8.52;7.68;;;;;;;29.56;34.20;100365.38;10306957;28;20242;-75
2021/07/10 15:11:33;;;;;;;8.77;7.00;;;;;;;27.73;36.44;100365.94;10306415;28;20608;-75
2021/07/10 15:16:37;;;;;;;8.70;7.38;;;;;;;28.21;36.37;100353.88;10305456;28;20708;-75
2021/07/10 15:21:42;;;;;;;9.18;7.70;;;;;;;27.89;37.61;100361.66;10309923;28;20707;-75
2021/07/10 15:26:45;;;;;;;7.82;6.68;;;;;;;26.74;38.54;100360.81;10342624;28;20907;-75
2021/07/10 15:31:47;;;;;;;9.13;7.25;;;;;;;26.62;39.93;100357.16;10345924;28;20238;-76
2021/07/10 15:36:52;;;;;;;8.07;7.28;;;;;;;26.57;39.83;100352.34;10343599;28;20244;-75
2021/07/10 15:41:55;;;;;;;10.70;7.95;;;;;;;26.38;40.76;100353.41;10344686;28;20861;-75
2021/07/10 15:46:58;;;;;;;10.73;9.18;;;;;;;25.90;42.79;100354.97;10345491;28;20256;-75
2021/07/10 15:52:03;;;;;;;11.68;9.55;;;;;;;25.33;44.16;100351.41;10352762;28;20396;-74
2021/07/10 15:57:06;;;;;;;11.77;8.90;;;;;;;25.04;44.71;100347.34;10357247;28;20731;-75
2021/07/10 16:02:09;;;;;;;10.65;9.52;;;;;;;25.00;46.02;100348.84;10355059;28;20243;-75
2021/07/10 16:07:14;;;;;;;12.02;9.60;;;;;;;24.72;46.28;100355.53;10356164;28;20606;-75
2021/07/10 16:12:17;;;;;;;12.18;9.57;;;;;;;24.65;47.26;100338.25;10356559;28;20237;-75
2021/07/10 16:17:20;;;;;;;12.45;9.75;;;;;;;24.65;46.99;100336.31;10353823;28;20231;-76
2021/07/10 16:22:24;;;;;;;10.82;9.63;;;;;;;24.46;47.22;100340.84;10370471;28;20240;-75
2021/07/10 16:27:28;;;;;;;13.95;10.73;;;;;;;24.56;47.24;100328.56;10351237;28;20242;-75
2021/07/10 16:32:30;;;;;;;14.93;10.20;;;;;;;24.86;46.17;100323.34;10355206;28;20609;-75
2021/07/10 16:37:35;;;;;;;12.32;9.82;;;;;;;25.05;46.12;100324.31;10353580;28;20238;-75
2021/07/10 16:42:39;;;;;;;13.63;11.40;;;;;;;24.80;46.65;100313.25;10354356;28;20227;-75
2021/07/10 16:48:02;;;;;;;16.02;11.52;;;;;;;24.20;48.01;100321.72;10354045;28;20241;-75
2021/07/10 16:53:06;;;;;;;12.63;9.23;;;;;;;23.53;48.98;100318.19;10353639;28;20241;-75
2021/07/10 16:58:10;;;;;;;10.90;9.60;;;;;;;23.13;50.26;100316.28;10352175;28;20245;-75
2021/07/10 17:03:13;;;;;;;11.65;9.93;;;;;;;23.64;49.06;100309.31;10351424;28;20234;-75
2021/07/10 17:08:17;;;;;;;12.52;9.70;;;;;;;22.73;51.58;100316.16;10351735;28;20237;-76
2021/07/10 17:13:20;;;;;;;11.93;9.15;;;;;;;22.30;52.50;100308.19;10351913;28;20710;-76
2021/07/10 17:18:23;;;;;;;14.55;9.63;;;;;;;22.09;53.60;100327.44;10351161;28;20719;-75
2021/07/10 17:23:28;;;;;;;12.13;10.23;;;;;;;21.84;55.36;100325.16;10352770;28;20237;-75
2021/07/10 17:28:31;;;;;;;15.07;10.57;;;;;;;21.54;57.29;100324.50;10353668;28;20238;-75
2021/07/10 17:33:34;;;;;;;14.02;10.70;;;;;;;21.31;58.21;100319.25;10352859;28;20233;-75
2021/07/10 17:38:38;;;;;;;13.45;9.98;;;;;;;20.95;61.99;100320.16;10363298;28;20778;-75
2021/07/10 17:43:41;;;;;;;15.88;10.68;;;;;;;20.83;64.06;100327.13;10350195;28;20237;-76
2021/07/10 17:48:44;;;;;;;15.55;11.05;;;;;;;20.80;63.66;100319.34;10353552;28;20242;-75
2021/07/10 17:53:49;;;;;;;12.27;10.20;;;;;;;20.73;63.85;100321.13;10351667;28;21101;-76
2021/07/10 17:58:52;;;;;;;12.93;10.32;;;;;;;20.78;62.78;100321.41;10310922;28;20300;-76
2021/07/10 18:03:55;;;;;;;11.23;9.98;;;;;;;20.82;60.78;100324.63;10306764;28;20278;-76
2021/07/10 18:09:00;;;;;;;11.13;9.05;;;;;;;20.80;60.08;100322.06;10309168;28;20275;-76
2021/07/10 18:14:03;;;;;;;11.65;10.02;;;;;;;20.84;60.77;100327.97;10308454;28;20230;-76
2021/07/10 18:19:06;;;;;;;12.20;10.13;;;;;;;20.75;61.07;100333.56;10310131;28;20708;-76
2021/07/10 18:24:11;;;;;;;13.63;9.90;;;;;;;20.75;61.50;100336.28;10311481;28;20235;-76
2021/07/10 18:29:13;;;;;;;11.65;9.77;;;;;;;20.74;62.02;100339.22;10309788;28;20250;-76
2021/07/10 18:34:16;;;;;;;14.98;10.13;;;;;;;20.65;62.67;100348.53;10310210;28;20262;-75
2021/07/10 18:39:21;;;;;;;11.82;10.00;;;;;;;20.58;62.65;100337.56;10309237;28;20730;-76
2021/07/10 18:44:24;;;;;;;12.27;9.95;;;;;;;20.59;62.48;100343.84;10309594;28;20288;-75
2021/07/10 18:49:27;;;;;;;11.73;10.50;;;;;;;20.58;62.69;100343.00;10309896;28;20234;-76
2021/07/10 18:54:31;;;;;;;12.82;10.18;;;;;;;20.55;62.68;100330.59;10311162;28;20257;-76
2021/07/10 18:59:37;;;;;;;13.35;9.60;;;;;;;20.43;62.77;100336.72;10308632;28;20704;-76
2021/07/10 19:04:40;;;;;;;12.13;9.93;;;;;;;20.37;62.81;100332.03;10325543;28;20724;-76
2021/07/10 19:09:44;;;;;;;13.55;10.13;;;;;;;20.26;63.09;100336.91;10338393;28;20230;-76
2021/07/10 19:14:47;;;;;;;11.75;10.55;;;;;;;20.24;63.10;100332.66;10349289;28;20687;-75
2021/07/10 19:19:50;;;;;;;11.75;10.10;;;;;;;20.23;62.85;100326.38;10350786;28;20245;-75
2021/07/10 19:24:55;;;;;;;10.90;9.63;;;;;;;20.21;62.97;100327.59;10350867;28;20260;-76
2021/07/10 19:29:58;;;;;;;14.50;10.27;;;;;;;20.19;62.96;100332.41;10358127;28;20242;-75
2021/07/10 19:35:00;;;;;;;12.27;9.55;;;;;;;20.08;62.57;100345.47;10356195;28;20257;-76
2021/07/10 19:40:07;;;;;;;11.73;9.38;;;;;;;20.02;62.71;100338.06;10357585;28;20238;-76
2021/07/10 19:45:12;;;;;;;13.50;10.02;;;;;;;19.98;61.57;100344.06;10354884;28;20238;-75
2021/07/10 19:50:17;;;;;;;13.15;9.77;;;;;;;19.93;61.12;100343.75;10338783;28;20288;-75
2021/07/10 19:55:22;;;;;;;12.20;9.90;;;;;;;19.89;60.87;100355.03;10339195;28;20238;-76
2021/07/10 20:00:28;;;;;;;10.93;9.52;;;;;;;19.86;60.87;100355.41;10340404;28;20246;-76
2021/07/10 20:05:32;;;;;;;10.93;9.77;;;;;;;19.82;61.06;100362.25;10329141;28;20243;-76
2021/07/10 20:10:39;;;;;;;13.00;10.43;;;;;;;19.76;61.21;100356.72;10314359;28;20261;-76
2021/07/10 20:15:42;;;;;;;13.25;10.82;;;;;;;19.64;61.56;100365.34;10328963;28;20246;-76
2021/07/10 20:20:46;;;;;;;11.02;9.70;;;;;;;19.50;61.91;100368.84;10314598;28;20227;-74
2021/07/10 20:25:51;;;;;;;12.85;10.00;;;;;;;19.31;62.69;100364.75;10314990;28;20247;-76
2021/07/10 20:30:54;;;;;;;14.40;10.55;;;;;;;19.19;63.19;100377.06;10315095;28;20238;-75
2021/07/10 20:35:57;;;;;;;11.95;10.10;;;;;;;19.14;63.05;100374.03;10312154;28;20266;-75
2021/07/10 20:41:02;;;;;;;12.70;9.88;;;;;;;19.04;63.49;100365.28;10314996;28;20246;-75
2021/07/10 20:46:08;;;;;;;15.00;10.85;;;;;;;18.93;63.79;100370.09;10313513;28;20258;-75
2021/07/10 20:51:11;;;;;;;12.38;10.18;;;;;;;18.93;63.73;100374.69;10313803;28;20909;-75
2021/07/10 20:56:16;;;;;;;14.50;10.63;;;;;;;18.84;64.19;100371.19;10312445;28;20621;-74
2021/07/10 21:01:19;;;;;;;12.73;10.32;;;;;;;18.80;64.44;100369.84;10313201;28;20227;-75
2021/07/10 21:06:22;;;;;;;12.43;10.38;;;;;;;18.79;64.49;100369.00;10313758;28;20334;-75
2021/07/10 21:11:27;;;;;;;11.85;10.15;;;;;;;18.73;64.59;100366.09;10313737;28;20250;-75
2021/07/10 21:16:30;;;;;;;12.68;10.48;;;;;;;18.63;64.62;100363.59;10348130;28;20661;-75
2021/07/10 21:21:35;;;;;;;14.45;10.80;;;;;;;18.57;64.85;100372.47;10352948;28;20329;-75
2021/07/10 21:26:40;;;;;;;13.30;10.32;;;;;;;18.45;65.23;100357.56;10353656;28;20237;-74
2021/07/10 21:31:42;;;;;;;13.25;10.75;;;;;;;18.38;65.31;100343.84;10350349;28;20226;-75
2021/07/10 21:36:46;;;;;;;14.32;10.27;;;;;;;18.27;65.95;100355.94;10349808;28;20237;-74
2021/07/10 21:41:50;;;;;;;12.80;10.73;;;;;;;18.18;65.84;100347.97;10333841;28;20696;-75
2021/07/10 21:46:53;;;;;;;13.63;10.30;;;;;;;;;;10307354;28;20243;-74
2021/07/10 21:51:55;;;;;;;13.27;11.23;;;;;;;18.05;66.74;100353.97;10306578;28;20235;-75
2021/07/10 21:57:00;;;;;;;13.05;11.15;;;;;;;17.91;66.85;100341.91;10310222;28;20317;-74
2021/07/10 22:02:04;;;;;;;14.43;10.25;;;;;;;17.69;67.51;100344.34;10308813;28;20242;-75
2021/07/10 22:07:07;;;;;;;12.82;10.52;;;;;;;17.46;68.35;100349.59;10308697;28;20234;-75
2021/07/10 22:12:13;;;;;;;13.55;11.10;;;;;;;17.34;68.89;100342.81;10309822;28;20250;-74
2021/07/10 22:17:16;;;;;;;12.50;10.57;;;;;;;17.21;69.06;100345.19;10307862;28;20235;-75
2021/07/10 22:22:19;;;;;;;16.40;12.20;;;;;;;16.98;70.01;100350.41;10311087;28;20322;-75
2021/07/10 22:27:23;;;;;;;15.60;12.25;;;;;;;16.89;70.44;100348.66;10306802;28;20243;-75
2021/07/10 22:32:26;;;;;;;16.23;12.90;;;;;;;16.87;70.36;100348.84;10306209;28;20313;-74
2021/07/10 22:37:29;;;;;;;16.60;13.40;;;;;;;16.98;70.05;100347.69;10309220;28;20632;-74
2021/07/10 22:42:33;;;;;;;15.88;12.93;;;;;;;17.05;69.99;100345.97;10306537;28;20235;-74
2021/07/10 22:47:36;;;;;;;14.50;11.75;;;;;;;17.06;69.82;100344.09;10304914;28;20231;-74
2021/07/10 22:52:39;;;;;;;13.50;12.05;;;;;;;16.90;70.24;100343.09;10306486;28;20230;-74